Aviation Digital Data Service (ADDS)

Output produced by METARs form (0623 UTC 02 October 2014)
found at http://aviationweather.gov/adds/metars/
 
KHKY 020537Z 0206/0306 00000KT P6SM OVC050 
     FM020700 00000KT 4SM BR SCT045 
     FM021200 VRB03KT P6SM FEW045 
     FM021800 19004KT P6SM SCT050 
     FM022300 18003KT P6SM FEW050